Time;durP1;ratioP1;P1;durP2;ratioP2;P2;SDS_P1;SDS_P2;PMS_P1;PMS_P2;Temp;Humidity;BMP_temperature;BMP_pressure;BME280_temperature;BME280_humidity;BME280_pressure;Samples;Min_cycle;Max_cycle;Signal;HPM_P1;HPM_P2
2023/09/07 00:00:43;;;;;;;3.75;1.95;;;18.80;99.90;;;;;;6117287;23;20036;-65
2023/09/07 00:03:08;;;;;;;2.17;1.98;;;18.90;99.90;;;;;;6092834;23;20045;-65
2023/09/07 00:05:34;;;;;;;4.63;1.98;;;18.90;99.90;;;;;;6118162;23;20014;-65
2023/09/07 00:08:00;;;;;;;4.30;2.10;;;18.90;99.90;;;;;;6092904;23;20022;-65
2023/09/07 00:10:26;;;;;;;2.80;2.10;;;18.90;99.90;;;;;;6116945;23;20049;-65
2023/09/07 00:12:52;;;;;;;3.90;2.17;;;19.00;99.90;;;;;;6092746;23;20029;-65
2023/09/07 00:15:20;;;;;;;2.63;2.10;;;19.10;99.90;;;;;;6092819;23;20029;-65
2023/09/07 00:17:45;;;;;;;1.95;1.60;;;19.10;99.90;;;;;;6094114;23;20025;-65
2023/09/07 00:20:11;;;;;;;4.43;2.20;;;19.10;99.90;;;;;;6092222;23;20346;-65
2023/09/07 00:22:37;;;;;;;3.90;2.13;;;19.10;99.90;;;;;;6094247;23;20010;-65
2023/09/07 00:25:06;;;;;;;3.70;2.08;;;19.10;99.90;;;;;;6119454;23;20088;-65
2023/09/07 00:27:33;;;;;;;3.70;2.28;;;19.20;99.90;;;;;;6120213;23;20040;-65
2023/09/07 00:29:59;;;;;;;3.47;2.50;;;19.20;99.90;;;;;;6093440;23;20444;-65
2023/09/07 00:32:24;;;;;;;3.85;2.03;;;19.20;99.90;;;;;;6120054;23;20112;-65
2023/09/07 00:34:50;;;;;;;2.47;2.00;;;19.20;99.90;;;;;;6118880;23;20105;-66
2023/09/07 00:37:15;;;;;;;2.78;1.88;;;19.20;99.90;;;;;;6118890;23;20018;-65
2023/09/07 00:39:41;;;;;;;2.28;2.08;;;19.30;99.90;;;;;;6118169;23;20025;-65
2023/09/07 00:42:06;;;;;;;2.70;2.20;;;19.30;99.90;;;;;;6120091;23;20010;-65
2023/09/07 00:44:32;;;;;;;3.63;2.28;;;19.30;99.90;;;;;;6093797;23;20021;-66
2023/09/07 00:46:57;;;;;;;2.90;1.70;;;19.20;99.90;;;;;;6094316;23;20022;-65
2023/09/07 00:49:24;;;;;;;4.13;1.63;;;19.30;99.90;;;;;;6119797;23;20072;-66
2023/09/07 00:51:50;;;;;;;4.35;2.38;;;19.30;99.90;;;;;;6118549;23;20021;-65
2023/09/07 00:54:16;;;;;;;5.88;2.15;;;19.30;99.90;;;;;;6092731;23;20034;-65
2023/09/07 00:56:42;;;;;;;4.40;2.35;;;19.40;99.90;;;;;;6119645;23;20109;-66
2023/09/07 00:59:08;;;;;;;4.18;1.88;;;19.30;99.90;;;;;;6093588;23;20017;-66
2023/09/07 01:01:35;;;;;;;2.88;1.65;;;19.30;99.90;;;;;;6092587;23;20014;-65
2023/09/07 01:04:03;;;;;;;6.78;2.03;;;19.30;99.90;;;;;;6069485;23;20453;-66
2023/09/07 01:06:47;;;;;;;4.53;1.75;;;19.30;99.90;;;;;;6118563;23;20373;-65
2023/09/07 01:09:21;;;;;;;2.70;2.13;;;19.20;99.90;;;;;;6092462;23;20033;-65
2023/09/07 01:11:47;;;;;;;2.28;2.08;;;19.20;99.90;;;;;;6093003;23;20018;-66
2023/09/07 01:14:12;;;;;;;5.00;2.15;;;19.20;99.90;;;;;;6118119;23;20021;-65
2023/09/07 01:16:39;;;;;;;4.88;2.30;;;19.20;99.90;;;;;;6119005;23;20009;-65
2023/09/07 01:19:06;;;;;;;4.10;2.00;;;19.20;99.90;;;;;;6118695;23;20490;-65
2023/09/07 01:21:38;;;;;;;3.78;2.30;;;19.20;99.90;;;;;;6093361;23;20013;-65
2023/09/07 01:24:08;;;;;;;2.72;2.30;;;19.20;99.90;;;;;;6093383;23;20484;-65
2023/09/07 01:26:36;;;;;;;5.55;2.80;;;19.20;99.90;;;;;;6092725;23;20045;-65
2023/09/07 01:29:02;;;;;;;3.08;2.75;;;19.10;99.90;;;;;;6118422;23;20017;-65
2023/09/07 01:31:28;;;;;;;3.97;2.47;;;19.10;99.90;;;;;;6119498;23;20429;-66
2023/09/07 01:33:53;;;;;;;7.65;2.30;;;19.10;99.90;;;;;;6092800;23;20022;-66
2023/09/07 01:36:19;;;;;;;4.38;2.63;;;19.10;99.90;;;;;;6119382;23;20559;-66
2023/09/07 01:38:45;;;;;;;3.85;2.03;;;19.00;99.90;;;;;;6093324;23;20384;-65
2023/09/07 01:41:10;;;;;;;2.65;2.25;;;19.00;99.90;;;;;;6118610;23;20010;-66
2023/09/07 01:43:37;;;;;;;4.28;2.42;;;18.90;99.90;;;;;;6119306;23;20089;-65
2023/09/07 01:46:02;;;;;;;2.40;2.10;;;18.90;99.90;;;;;;6092577;23;20018;-65
2023/09/07 01:48:28;;;;;;;3.75;1.90;;;18.80;99.90;;;;;;6119740;23;20606;-65
2023/09/07 01:50:54;;;;;;;3.92;2.15;;;18.70;99.90;;;;;;6118144;23;20021;-65
2023/09/07 01:53:20;;;;;;;6.68;3.28;;;18.70;99.90;;;;;;6119390;23;20151;-65
2023/09/07 01:55:45;;;;;;;2.63;2.28;;;18.60;99.90;;;;;;6092674;23;20068;-65
2023/09/07 01:58:11;;;;;;;2.97;2.30;;;18.50;99.90;;;;;;6118816;23;20021;-65
2023/09/07 02:00:40;;;;;;;3.78;2.58;;;18.60;99.90;;;;;;6118213;23;20085;-65
2023/09/07 02:03:06;;;;;;;5.47;2.35;;;18.40;99.90;;;;;;6093122;23;20071;-65
2023/09/07 02:05:32;;;;;;;5.80;3.35;;;18.40;99.90;;;;;;6094122;23;20018;-65
2023/09/07 02:07:58;;;;;;;3.80;2.70;;;18.40;99.90;;;;;;6093982;23;20093;-65
2023/09/07 02:10:24;;;;;;;6.97;2.55;;;18.30;99.90;;;;;;6092172;23;20053;-65
2023/09/07 02:12:49;;;;;;;2.70;2.30;;;18.20;99.90;;;;;;6093072;23;20336;-66
2023/09/07 02:15:15;;;;;;;3.05;2.42;;;18.10;99.90;;;;;;6092487;23;20030;-65
2023/09/07 02:17:44;;;;;;;3.60;2.75;;;18.00;99.90;;;;;;6119587;23;20017;-65
2023/09/07 02:20:11;;;;;;;3.17;2.88;;;18.00;99.90;;;;;;6118004;23;20013;-65
2023/09/07 02:22:38;;;;;;;4.85;2.78;;;17.80;99.90;;;;;;6119278;23;20063;-65
2023/09/07 02:25:05;;;;;;;4.18;3.10;;;17.80;99.90;;;;;;6092372;23;20101;-65
2023/09/07 02:27:34;;;;;;;3.05;2.85;;;17.80;99.90;;;;;;6093674;23;20043;-65
2023/09/07 02:30:01;;;;;;;6.50;3.17;;;17.70;99.90;;;;;;6090963;23;20022;-65
2023/09/07 02:32:27;;;;;;;3.92;2.83;;;17.70;99.90;;;;;;6119366;23;20060;-65
2023/09/07 02:34:53;;;;;;;4.68;2.65;;;17.70;99.90;;;;;;6119673;23;20014;-65
2023/09/07 02:37:19;;;;;;;2.92;2.70;;;17.70;99.90;;;;;;6093167;23;20025;-65
2023/09/07 02:39:44;;;;;;;4.15;3.17;;;17.60;99.90;;;;;;6118090;23;20468;-65
2023/09/07 02:42:10;;;;;;;3.20;2.90;;;17.60;99.90;;;;;;6119396;23;20017;-65
2023/09/07 02:44:35;;;;;;;8.40;2.53;;;17.60;99.90;;;;;;6119508;23;20022;-65
2023/09/07 02:47:01;;;;;;;3.85;3.03;;;17.60;99.90;;;;;;6118752;23;20021;-65
2023/09/07 02:49:27;;;;;;;3.72;2.65;;;17.50;99.90;;;;;;6092800;23;20029;-65
2023/09/07 02:51:53;;;;;;;4.72;2.90;;;17.50;99.90;;;;;;6118448;23;20109;-66
2023/09/07 02:54:18;;;;;;;3.85;2.78;;;17.50;99.90;;;;;;6119302;23;20014;-65
2023/09/07 02:56:44;;;;;;;5.95;3.10;;;17.40;99.90;;;;;;6092118;23;20014;-65
2023/09/07 02:59:09;;;;;;;5.50;2.75;;;17.40;99.90;;;;;;6093316;23;20345;-65
2023/09/07 03:01:35;;;;;;;3.35;2.75;;;17.40;99.90;;;;;;6093038;23;20021;-65
2023/09/07 03:04:03;;;;;;;4.78;3.35;;;17.30;99.90;;;;;;6119196;23;20010;-65
2023/09/07 03:06:29;;;;;;;4.93;2.70;;;17.30;99.90;;;;;;6117468;23;20127;-65
2023/09/07 03:08:54;;;;;;;3.28;2.53;;;17.40;99.90;;;;;;6118091;23;20437;-65
2023/09/07 03:11:20;;;;;;;4.50;3.28;;;17.40;99.90;;;;;;6118560;23;20014;-65
2023/09/07 03:13:45;;;;;;;2.97;2.72;;;17.30;99.90;;;;;;6093895;23;20021;-65
2023/09/07 03:16:11;;;;;;;5.63;3.42;;;17.30;99.90;;;;;;6117663;23;20067;-65
2023/09/07 03:18:36;;;;;;;4.03;2.90;;;17.20;99.90;;;;;;6091971;23;20049;-65
2023/09/07 03:21:03;;;;;;;6.25;3.22;;;17.20;99.90;;;;;;6092826;23;20018;-65
2023/09/07 03:23:30;;;;;;;4.57;2.95;;;17.20;99.90;;;;;;6119209;23;20014;-65
2023/09/07 03:25:56;;;;;;;4.07;3.10;;;17.20;99.90;;;;;;6117555;23;20021;-65
2023/09/07 03:28:21;;;;;;;4.20;2.83;;;17.20;99.90;;;;;;6093402;23;20068;-65
2023/09/07 03:30:47;;;;;;;7.03;2.80;;;17.20;99.90;;;;;;6117409;23;20024;-65
2023/09/07 03:33:13;;;;;;;4.25;2.90;;;17.30;99.90;;;;;;6119082;23;20017;-65
2023/09/07 03:35:40;;;;;;;5.85;3.78;;;17.20;99.90;;;;;;6092781;23;20025;-65
2023/09/07 03:38:06;;;;;;;6.78;2.70;;;17.20;99.90;;;;;;6093261;23;20066;-65
2023/09/07 03:40:32;;;;;;;3.58;2.85;;;17.20;99.90;;;;;;6117395;23;20021;-65
2023/09/07 03:42:57;;;;;;;3.08;2.78;;;17.10;99.90;;;;;;6092416;23;20116;-66
2023/09/07 03:45:23;;;;;;;2.60;2.40;;;17.10;99.90;;;;;;6093051;23;20083;-65
2023/09/07 03:47:49;;;;;;;4.20;3.10;;;17.10;99.90;;;;;;6093428;23;20109;-65
2023/09/07 03:50:15;;;;;;;3.70;3.40;;;17.10;99.90;;;;;;6092317;23;20026;-65
2023/09/07 03:52:40;;;;;;;3.80;3.40;;;17.20;99.90;;;;;;6092679;23;20022;-65
2023/09/07 03:55:06;;;;;;;4.05;3.70;;;17.30;99.90;;;;;;6092848;23;20025;-65
2023/09/07 03:57:32;;;;;;;3.53;3.05;;;17.30;99.90;;;;;;6093621;23;20025;-65
2023/09/07 03:59:58;;;;;;;4.05;3.65;;;17.40;99.90;;;;;;6092474;23;20018;-65
2023/09/07 04:02:24;;;;;;;3.80;3.28;;;17.50;99.90;;;;;;6117201;23;20021;-65
2023/09/07 04:04:51;;;;;;;4.22;3.42;;;17.50;99.90;;;;;;6118222;23;20290;-65
2023/09/07 04:07:17;;;;;;;4.60;3.60;;;17.60;99.90;;;;;;6117592;23;20075;-65
2023/09/07 04:09:44;;;;;;;4.78;2.95;;;17.60;99.90;;;;;;6092218;23;20022;-65
2023/09/07 04:12:10;;;;;;;4.57;3.45;;;17.60;99.90;;;;;;6092176;23;20024;-65
2023/09/07 04:14:36;;;;;;;5.63;3.50;;;17.60;99.90;;;;;;6092226;23;20508;-65
2023/09/07 04:17:02;;;;;;;5.43;3.53;;;17.60;99.90;;;;;;6117929;23;20073;-65
2023/09/07 04:19:28;;;;;;;3.80;3.28;;;17.60;99.90;;;;;;6117135;23;20025;-65
2023/09/07 04:21:53;;;;;;;5.53;3.40;;;17.50;99.90;;;;;;6115561;23;20014;-65
2023/09/07 04:24:19;;;;;;;3.92;3.53;;;17.50;99.90;;;;;;6091808;23;20018;-65
2023/09/07 04:26:45;;;;;;;3.80;3.47;;;17.50;99.90;;;;;;6092041;23;20445;-65
2023/09/07 04:29:12;;;;;;;4.25;3.83;;;17.50;99.90;;;;;;6092218;23;20021;-65
2023/09/07 04:31:38;;;;;;;3.83;3.38;;;17.50;99.90;;;;;;6114922;23;20518;-65
2023/09/07 04:34:04;;;;;;;5.15;3.45;;;17.40;99.90;;;;;;6091537;23;20030;-65
2023/09/07 04:36:29;;;;;;;5.43;3.47;;;17.40;99.90;;;;;;6117589;23;20448;-65
2023/09/07 04:38:55;;;;;;;7.85;3.42;;;17.40;99.90;;;;;;6117950;23;20010;-65
2023/09/07 04:41:21;;;;;;;8.88;4.00;;;17.40;99.90;;;;;;6118242;23;20017;-65
2023/09/07 04:43:46;;;;;;;8.93;3.83;;;17.40;99.90;;;;;;6092708;23;20029;-65
2023/09/07 04:46:13;;;;;;;9.15;4.13;;;17.30;99.90;;;;;;6116474;23;20014;-65
2023/09/07 04:48:41;;;;;;;7.85;3.55;;;17.30;99.90;;;;;;6092124;23;20024;-65
2023/09/07 04:51:08;;;;;;;5.93;4.03;;;17.20;99.90;;;;;;6117133;23;20079;-65
2023/09/07 04:53:35;;;;;;;5.65;3.45;;;17.20;99.90;;;;;;6092096;23;20018;-65
2023/09/07 04:56:05;;;;;;;6.45;4.22;;;17.20;99.90;;;;;;6117624;23;20057;-65
2023/09/07 04:58:30;;;;;;;5.35;3.50;;;17.20;99.90;;;;;;6117537;23;20018;-65
2023/09/07 05:01:03;;;;;;;6.93;3.45;;;17.20;99.90;;;;;;6117203;23;20337;-65
2023/09/07 05:03:29;;;;;;;4.13;3.70;;;17.10;99.90;;;;;;6119123;23;20085;-65
2023/09/07 05:05:55;;;;;;;6.07;3.75;;;17.00;99.90;;;;;;6092788;23;20086;-65
2023/09/07 05:08:22;;;;;;;5.68;4.15;;;17.00;99.90;;;;;;6120361;23;20508;-65
2023/09/07 05:10:48;;;;;;;4.32;3.90;;;17.10;99.90;;;;;;6092133;23;20018;-65
2023/09/07 05:13:13;;;;;;;7.47;3.35;;;17.10;99.90;;;;;;6119162;23;20036;-65
2023/09/07 05:15:49;;;;;;;6.30;3.40;;;17.10;99.90;;;;;;6118648;23;20018;-65
2023/09/07 05:18:14;;;;;;;4.07;3.67;;;17.20;99.90;;;;;;6119938;23;20010;-65
2023/09/07 05:20:40;;;;;;;4.95;4.00;;;17.10;99.90;;;;;;6117360;23;20083;-65
2023/09/07 05:23:06;;;;;;;8.43;3.72;;;17.20;99.90;;;;;;6118685;23;20018;-65
2023/09/07 05:25:32;;;;;;;4.97;3.95;;;17.30;99.90;;;;;;6118842;23;20349;-65
2023/09/07 05:27:58;;;;;;;4.38;3.97;;;17.30;99.90;;;;;;6118756;23;20014;-65
2023/09/07 05:30:23;;;;;;;4.15;3.65;;;17.60;99.90;;;;;;6116889;23;20466;-65
2023/09/07 05:32:49;;;;;;;6.45;3.88;;;18.00;99.90;;;;;;6091876;23;20057;-65
2023/09/07 05:35:16;;;;;;;3.78;3.47;;;18.30;99.90;;;;;;6093068;23;20085;-65
2023/09/07 05:37:42;;;;;;;6.40;4.30;;;18.60;99.90;;;;;;6119699;23;20439;-65
2023/09/07 05:40:08;;;;;;;5.75;3.53;;;18.70;99.90;;;;;;6091573;23;20023;-65
2023/09/07 05:42:34;;;;;;;4.15;3.75;;;18.90;99.90;;;;;;6118202;23;20337;-65
2023/09/07 05:44:59;;;;;;;6.45;3.33;;;19.20;99.90;;;;;;6091613;23;20022;-65
2023/09/07 05:47:26;;;;;;;5.00;3.38;;;19.50;99.90;;;;;;6118898;23;20429;-65
2023/09/07 05:50:26;;;;;;;7.75;3.88;;;19.90;99.90;;;;;;6118065;23;20084;-65
2023/09/07 05:52:51;;;;;;;5.20;3.40;;;20.00;99.90;;;;;;6069152;23;20017;-65
2023/09/07 05:55:17;;;;;;;4.32;3.58;;;20.10;99.90;;;;;;6116857;23;20591;-65
2023/09/07 05:57:43;;;;;;;4.95;3.60;;;20.30;99.90;;;;;;6091574;23;20014;-64
2023/09/07 06:00:09;;;;;;;3.88;3.47;;;21.00;99.90;;;;;;6088091;23;20018;-65
2023/09/07 06:02:35;;;;;;;5.60;2.92;;;22.20;99.90;;;;;;6092712;23;20010;-65
2023/09/07 06:05:01;;;;;;;5.28;3.08;;;23.50;99.90;;;;;;6115460;23;20021;-65
2023/09/07 06:07:27;;;;;;;7.75;3.33;;;24.50;99.90;;;;;;6115131;23;20022;-65
2023/09/07 06:09:52;;;;;;;6.75;2.83;;;25.60;99.90;;;;;;6090566;23;20025;-65
2023/09/07 06:12:19;;;;;;;2.90;2.60;;;26.10;99.90;;;;;;6113891;23;20018;-65
2023/09/07 06:14:46;;;;;;;5.75;3.05;;;26.70;99.90;;;;;;6090450;23;20067;-65
2023/09/07 06:17:12;;;;;;;5.50;3.10;;;27.80;99.90;;;;;;6088938;23;20610;-65
2023/09/07 06:19:37;;;;;;;5.07;3.00;;;28.40;98.10;;;;;;6090212;23;20025;-65
2023/09/07 06:22:04;;;;;;;4.20;3.30;;;29.30;97.60;;;;;;6116981;23;20005;-65
2023/09/07 06:24:29;;;;;;;5.07;2.90;;;30.10;97.20;;;;;;6091452;23;20022;-65
2023/09/07 06:26:55;;;;;;;3.90;3.25;;;30.90;96.00;;;;;;6092539;23;20405;-65
2023/09/07 06:29:20;;;;;;;3.63;3.33;;;31.10;94.90;;;;;;6118549;23;20468;-65
2023/09/07 06:31:46;;;;;;;4.93;2.58;;;31.10;93.70;;;;;;6092410;23;20022;-65
2023/09/07 06:34:11;;;;;;;6.15;2.97;;;31.60;93.50;;;;;;6093514;23;20022;-65
2023/09/07 06:36:37;;;;;;;4.50;2.92;;;31.90;92.90;;;;;;6092424;23;20025;-65
2023/09/07 06:39:04;;;;;;;5.28;3.00;;;31.90;92.30;;;;;;6090975;23;20018;-65
2023/09/07 06:41:30;;;;;;;5.50;3.22;;;32.40;91.20;;;;;;6119174;23;20364;-65
2023/09/07 06:43:56;;;;;;;3.78;2.90;;;32.60;91.60;;;;;;6119696;23;20022;-65
2023/09/07 06:46:22;;;;;;;5.97;2.88;;;32.80;91.30;;;;;;6118761;23;20079;-65
2023/09/07 06:48:48;;;;;;;6.10;3.00;;;32.40;90.80;;;;;;6118196;23;20014;-65
2023/09/07 06:51:14;;;;;;;3.22;2.92;;;31.60;91.10;;;;;;6093305;23;20014;-65
2023/09/07 06:53:40;;;;;;;3.47;3.17;;;30.30;91.30;;;;;;6119696;23;20463;-65
2023/09/07 06:56:06;;;;;;;5.18;3.42;;;29.40;91.90;;;;;;6091826;23;20014;-65
2023/09/07 06:58:34;;;;;;;3.92;3.05;;;28.50;92.90;;;;;;6118166;23;20021;-65
2023/09/07 07:01:00;;;;;;;4.40;2.85;;;28.00;93.80;;;;;;6093762;23;20018;-64
2023/09/07 07:03:30;;;;;;;2.63;2.40;;;27.70;94.30;;;;;;6119339;23;20408;-65
2023/09/07 07:05:56;;;;;;;5.82;3.22;;;27.30;94.40;;;;;;6118519;23;20341;-65
2023/09/07 07:08:23;;;;;;;4.30;3.13;;;26.80;94.70;;;;;;6119352;23;20018;-65
2023/09/07 07:10:49;;;;;;;5.43;3.17;;;26.10;95.10;;;;;;6092101;23;20029;-65
2023/09/07 07:13:14;;;;;;;3.85;3.25;;;25.80;96.30;;;;;;6120096;23;20349;-65
2023/09/07 07:15:40;;;;;;;7.80;3.25;;;25.40;96.70;;;;;;6119011;23;20010;-65
2023/09/07 07:18:08;;;;;;;4.47;3.05;;;25.20;97.10;;;;;;6119762;23;20449;-65
2023/09/07 07:20:43;;;;;;;4.47;3.50;;;25.00;97.50;;;;;;6091453;23;20061;-65
2023/09/07 07:23:09;;;;;;;7.13;3.13;;;24.80;98.00;;;;;;6119038;23;20376;-65
2023/09/07 07:25:36;;;;;;;5.80;3.05;;;24.50;98.50;;;;;;6092968;23;20014;-65
2023/09/07 07:28:05;;;;;;;3.53;3.20;;;24.40;98.70;;;;;;6093591;23;20465;-65
2023/09/07 07:30:35;;;;;;;5.85;3.40;;;24.30;99.10;;;;;;6093940;23;20018;-65
2023/09/07 07:33:03;;;;;;;4.20;3.22;;;24.20;99.20;;;;;;6093880;23;20088;-65
2023/09/07 07:35:29;;;;;;;7.00;3.28;;;24.10;99.70;;;;;;6092462;23;20021;-65
2023/09/07 07:37:55;;;;;;;3.83;3.08;;;23.90;99.70;;;;;;6119552;23;20078;-65
2023/09/07 07:40:20;;;;;;;3.25;2.95;;;23.90;99.90;;;;;;6091903;23;20176;-65
2023/09/07 07:42:47;;;;;;;5.03;3.13;;;23.80;99.90;;;;;;6118929;23;20392;-65
2023/09/07 07:45:13;;;;;;;8.27;4.25;;;23.80;99.90;;;;;;6118999;23;20414;-65
2023/09/07 07:47:41;;;;;;;3.50;3.05;;;23.70;99.90;;;;;;6118646;23;20029;-65
2023/09/07 07:50:07;;;;;;;6.43;3.28;;;23.80;99.90;;;;;;6091031;23;20032;-65
2023/09/07 07:52:32;;;;;;;4.93;3.30;;;23.60;99.90;;;;;;6092825;23;20018;-65
2023/09/07 07:54:58;;;;;;;3.92;2.90;;;23.50;99.90;;;;;;6091764;23;20036;-65
2023/09/07 07:57:23;;;;;;;7.43;2.97;;;23.40;99.90;;;;;;6119366;23;20046;-65
2023/09/07 07:59:49;;;;;;;4.65;3.20;;;23.50;99.90;;;;;;6118103;23;20014;-65
2023/09/07 08:02:15;;;;;;;3.72;3.40;;;23.40;99.90;;;;;;6119212;23;20013;-65
2023/09/07 08:04:40;;;;;;;4.82;3.15;;;23.50;99.90;;;;;;6089342;23;20022;-65
2023/09/07 08:07:08;;;;;;;5.63;3.20;;;23.40;99.90;;;;;;6117579;23;20436;-65
2023/09/07 08:09:34;;;;;;;7.35;2.88;;;23.50;99.90;;;;;;6117482;23;20037;-65
2023/09/07 08:12:02;;;;;;;3.97;2.88;;;23.60;99.90;;;;;;6119761;23;20014;-65
2023/09/07 08:14:28;;;;;;;3.78;3.08;;;23.80;99.90;;;;;;6091894;23;20065;-65
2023/09/07 08:16:54;;;;;;;4.80;3.15;;;23.80;99.90;;;;;;6093098;23;20025;-65
2023/09/07 08:19:20;;;;;;;3.42;3.13;;;23.90;99.90;;;;;;6092192;23;20014;-65
2023/09/07 08:21:46;;;;;;;5.47;3.08;;;24.20;99.90;;;;;;6118788;23;20018;-65
2023/09/07 08:24:12;;;;;;;4.65;3.58;;;24.30;99.90;;;;;;6092475;23;20046;-65
2023/09/07 08:26:37;;;;;;;5.40;2.65;;;24.50;99.90;;;;;;6119042;23;20311;-65
2023/09/07 08:29:05;;;;;;;4.03;2.58;;;24.90;99.90;;;;;;6092020;23;20018;-65
2023/09/07 08:31:38;;;;;;;4.47;2.90;;;25.20;99.90;;;;;;6118592;23;20014;-65
2023/09/07 08:34:06;;;;;;;2.10;2.00;;;25.50;99.90;;;;;;6093045;23;20446;-65
2023/09/07 08:36:33;;;;;;;4.20;2.70;;;25.80;99.90;;;;;;6119109;23;20018;-65
2023/09/07 08:39:05;;;;;;;3.15;2.75;;;26.10;99.90;;;;;;6092488;23;20018;-65
2023/09/07 08:41:37;;;;;;;3.13;2.80;;;26.20;98.50;;;;;;6092681;23;20014;-65
2023/09/07 08:44:06;;;;;;;5.15;2.42;;;26.30;98.40;;;;;;6094391;23;20068;-65
2023/09/07 08:46:33;;;;;;;4.60;2.80;;;26.40;98.30;;;;;;6093710;23;20361;-65
2023/09/07 08:49:03;;;;;;;6.25;2.60;;;26.40;98.30;;;;;;6093070;23;20022;-65
2023/09/07 08:51:31;;;;;;;9.70;2.55;;;26.70;98.50;;;;;;6094135;23;20021;-65
2023/09/07 08:53:57;;;;;;;3.75;2.30;;;26.90;98.10;;;;;;6119525;23;20022;-65
2023/09/07 08:56:24;;;;;;;4.68;3.30;;;26.90;97.80;;;;;;6093475;23;20025;-65
2023/09/07 08:58:50;;;;;;;3.70;2.83;;;26.80;97.50;;;;;;6092373;23;20080;-65
2023/09/07 09:01:17;;;;;;;4.28;2.45;;;26.80;97.30;;;;;;6093813;23;20010;-65
2023/09/07 09:03:43;;;;;;;3.55;2.58;;;26.80;97.30;;;;;;6094094;23;20438;-65
2023/09/07 09:06:10;;;;;;;9.02;2.78;;;27.10;97.50;;;;;;6093830;23;20021;-65
2023/09/07 09:08:48;;;;;;;5.22;2.53;;;27.00;96.70;;;;;;6092300;23;20025;-65
2023/09/07 09:11:15;;;;;;;2.97;2.42;;;27.10;96.60;;;;;;6093183;23;20026;-65
2023/09/07 09:13:56;;;;;;;2.60;2.22;;;27.10;97.00;;;;;;6119234;23;20932;-65
2023/09/07 09:16:22;;;;;;;4.43;2.58;;;27.40;96.10;;;;;;6093874;23;20018;-65
2023/09/07 09:18:55;;;;;;;3.75;2.30;;;27.40;96.50;;;;;;6094184;23;20006;-65
2023/09/07 09:21:23;;;;;;;7.35;2.38;;;27.40;96.40;;;;;;6119526;23;20040;-65
2023/09/07 09:23:51;;;;;;;5.43;2.45;;;27.60;96.50;;;;;;6119586;23;20045;-65
2023/09/07 09:26:16;;;;;;;6.93;2.67;;;27.60;95.90;;;;;;6119010;23;20028;-65
2023/09/07 09:28:44;;;;;;;4.97;2.38;;;27.50;95.60;;;;;;6093202;23;20089;-65
2023/09/07 09:31:12;;;;;;;4.68;2.60;;;27.60;96.40;;;;;;6094535;23;20349;-65
2023/09/07 09:33:58;;;;;;;4.65;2.13;;;27.80;96.60;;;;;;6093519;23;20022;-65
2023/09/07 09:36:24;;;;;;;7.85;2.55;;;28.00;96.10;;;;;;6118426;23;20080;-65
2023/09/07 09:38:53;;;;;;;5.63;2.83;;;28.10;95.70;;;;;;6117922;23;20014;-65
2023/09/07 09:41:20;;;;;;;2.72;2.35;;;28.00;94.90;;;;;;6092006;23;20010;-65
2023/09/07 09:43:51;;;;;;;4.70;2.75;;;28.10;95.50;;;;;;6093574;23;20029;-66
2023/09/07 09:46:17;;;;;;;4.80;2.90;;;28.10;94.90;;;;;;6092628;23;20021;-65
2023/09/07 09:48:43;;;;;;;3.03;2.63;;;28.20;95.50;;;;;;6093954;23;20017;-65
2023/09/07 09:51:11;;;;;;;4.55;3.08;;;28.40;95.50;;;;;;6118781;23;20486;-65
2023/09/07 09:53:37;;;;;;;3.05;2.70;;;28.70;96.10;;;;;;6120025;23;20414;-65
2023/09/07 09:56:03;;;;;;;4.82;3.05;;;28.70;95.50;;;;;;6070108;23;20014;-65
2023/09/07 09:58:29;;;;;;;5.07;2.25;;;28.60;94.60;;;;;;6093164;23;20029;-65
2023/09/07 10:00:57;;;;;;;2.70;2.42;;;28.50;95.20;;;;;;6120307;23;20010;-65
2023/09/07 10:03:33;;;;;;;3.53;2.42;;;28.50;94.80;;;;;;6094444;23;20025;-65
2023/09/07 10:06:17;;;;;;;6.03;2.30;;;28.50;95.00;;;;;;6093890;23;20452;-65
2023/09/07 10:09:04;;;;;;;4.10;2.40;;;28.40;95.00;;;;;;6118569;23;20135;-65
2023/09/07 10:11:35;;;;;;;3.75;2.35;;;28.40;94.50;;;;;;6118602;23;20052;-65
2023/09/07 10:14:05;;;;;;;6.38;2.58;;;28.40;94.50;;;;;;6089327;23;20603;-65
2023/09/07 10:16:52;;;;;;;3.42;2.47;;;28.50;94.10;;;;;;6118527;23;20021;-65
2023/09/07 10:19:27;;;;;;;5.82;2.45;;;28.50;94.30;;;;;;6068536;23;20063;-65
2023/09/07 10:21:54;;;;;;;8.63;2.30;;;28.30;93.80;;;;;;6093397;23;20022;-65
2023/09/07 10:24:35;;;;;;;3.63;2.70;;;28.30;94.60;;;;;;6093587;23;20027;-64
2023/09/07 10:27:05;;;;;;;3.47;2.30;;;28.50;94.70;;;;;;6118295;23;20081;-65
2023/09/07 10:29:46;;;;;;;2.58;2.38;;;28.70;95.10;;;;;;6118513;23;20014;-65
2023/09/07 10:32:14;;;;;;;2.88;2.03;;;28.50;93.80;;;;;;6118375;23;20020;-64
2023/09/07 10:34:43;;;;;;;4.97;2.60;;;28.60;95.10;;;;;;6093066;23;20445;-64
2023/09/07 10:37:12;;;;;;;3.53;2.13;;;28.60;94.60;;;;;;6093225;23;20051;-64
2023/09/07 10:39:39;;;;;;;5.75;2.85;;;28.90;95.20;;;;;;6092873;23;20539;-64
2023/09/07 10:42:05;;;;;;;2.47;2.10;;;28.80;93.70;;;;;;6118385;23;20017;-64
2023/09/07 10:44:31;;;;;;;4.35;2.35;;;28.80;94.10;;;;;;6119218;23;20307;-65
2023/09/07 10:46:57;;;;;;;4.05;2.35;;;28.80;94.20;;;;;;6092216;23;20155;-64
2023/09/07 10:49:24;;;;;;;3.25;2.17;;;28.70;93.30;;;;;;6118872;23;20014;-64
2023/09/07 10:51:49;;;;;;;9.05;2.22;;;28.60;93.60;;;;;;6117139;23;20060;-64
2023/09/07 10:54:23;;;;;;;4.32;2.40;;;28.70;94.10;;;;;;6119874;23;20372;-64
2023/09/07 10:56:50;;;;;;;7.45;2.38;;;28.80;94.20;;;;;;6118697;23;20013;-64
2023/09/07 10:59:17;;;;;;;6.65;2.72;;;28.80;93.90;;;;;;6118205;23;20014;-64
2023/09/07 11:01:48;;;;;;;4.20;2.50;;;29.00;93.80;;;;;;6090316;23;20014;-64
2023/09/07 11:04:14;;;;;;;3.88;2.85;;;29.10;94.10;;;;;;6091108;23;20029;-64
2023/09/07 11:06:41;;;;;;;7.18;2.58;;;29.20;93.80;;;;;;6118475;23;20441;-65
2023/09/07 11:09:10;;;;;;;3.08;2.47;;;29.30;94.40;;;;;;6119979;23;20018;-64
2023/09/07 11:11:36;;;;;;;5.25;2.33;;;29.10;93.70;;;;;;6093403;23;20014;-64
2023/09/07 11:14:05;;;;;;;3.15;2.65;;;29.10;93.80;;;;;;6119688;23;20025;-65
2023/09/07 11:16:33;;;;;;;4.63;2.67;;;29.20;93.90;;;;;;6117902;23;20345;-65
2023/09/07 11:19:04;;;;;;;4.20;2.47;;;29.00;93.00;;;;;;6092609;23;20089;-64
2023/09/07 11:21:31;;;;;;;5.03;2.50;;;29.00;93.60;;;;;;6120010;23;20656;-64
2023/09/07 11:23:57;;;;;;;3.15;2.42;;;29.10;93.50;;;;;;6120279;23;20085;-65
2023/09/07 11:26:23;;;;;;;5.85;2.83;;;29.10;93.20;;;;;;6093680;23;20089;-64
2023/09/07 11:28:48;;;;;;;7.43;2.55;;;29.10;93.00;;;;;;6118734;23;20758;-64
2023/09/07 11:31:19;;;;;;;5.47;2.72;;;29.10;92.70;;;;;;6120403;23;20340;-64
2023/09/07 11:33:46;;;;;;;3.90;2.33;;;29.10;92.30;;;;;;6118681;23;20021;-65
2023/09/07 11:36:11;;;;;;;5.03;2.13;;;29.10;93.00;;;;;;6119554;23;20068;-64
2023/09/07 11:38:37;;;;;;;4.45;2.33;;;29.10;92.90;;;;;;6118957;23;20018;-65
2023/09/07 11:41:03;;;;;;;3.80;2.65;;;29.20;92.50;;;;;;6093427;23;20440;-65
2023/09/07 11:43:29;;;;;;;2.72;2.28;;;29.20;92.50;;;;;;6092280;23;20428;-64
2023/09/07 11:45:55;;;;;;;3.10;2.42;;;29.20;92.60;;;;;;6094043;23;20022;-64
2023/09/07 11:48:20;;;;;;;2.92;2.08;;;29.20;92.10;;;;;;6120500;23;20021;-64
2023/09/07 11:50:46;;;;;;;2.70;2.25;;;29.10;92.40;;;;;;6119012;23;20021;-64
2023/09/07 11:53:12;;;;;;;2.50;2.25;;;29.10;92.30;;;;;;6120059;23;20396;-64
2023/09/07 11:55:39;;;;;;;3.20;2.38;;;29.10;92.30;;;;;;6118886;23;20020;-65
2023/09/07 11:58:04;;;;;;;3.55;2.88;;;29.20;92.50;;;;;;6093399;23;20420;-65
2023/09/07 12:00:31;;;;;;;7.82;2.33;;;29.20;92.00;;;;;;6119044;23;20036;-64
2023/09/07 12:02:57;;;;;;;5.32;2.67;;;29.20;92.10;;;;;;6120493;23;20014;-65
2023/09/07 12:05:24;;;;;;;3.75;2.13;;;29.20;92.60;;;;;;6118702;23;20014;-64
2023/09/07 12:07:49;;;;;;;4.10;2.20;;;29.30;93.50;;;;;;6120208;23;20010;-65
2023/09/07 12:10:15;;;;;;;6.18;2.50;;;29.50;93.00;;;;;;6094073;23;20126;-65
2023/09/07 12:12:41;;;;;;;3.47;2.17;;;29.60;92.80;;;;;;6121336;23;20022;-65
2023/09/07 12:15:08;;;;;;;2.40;1.85;;;29.70;93.40;;;;;;6093799;23;20026;-65
2023/09/07 12:17:34;;;;;;;3.00;2.40;;;29.70;92.50;;;;;;6120820;23;20093;-65
2023/09/07 12:20:00;;;;;;;4.05;2.60;;;29.50;92.20;;;;;;6119401;23;20010;-65
2023/09/07 12:22:26;;;;;;;4.88;2.20;;;29.60;92.60;;;;;;6120448;23;20014;-65
2023/09/07 12:24:53;;;;;;;6.68;2.63;;;29.70;92.90;;;;;;6119491;23;20025;-64
2023/09/07 12:27:19;;;;;;;6.07;2.53;;;29.60;92.30;;;;;;6093474;23;20018;-65
2023/09/07 12:29:45;;;;;;;8.25;2.42;;;29.50;91.60;;;;;;6118308;23;20091;-64
2023/09/07 12:32:11;;;;;;;3.28;2.50;;;29.50;91.70;;;;;;6120654;23;20020;-64
2023/09/07 12:34:37;;;;;;;3.13;1.88;;;29.40;91.10;;;;;;6118198;23;20022;-64
2023/09/07 12:37:06;;;;;;;3.70;2.08;;;29.40;91.30;;;;;;6091104;23;20352;-63
2023/09/07 12:39:32;;;;;;;3.78;2.35;;;29.40;90.90;;;;;;6093092;23;20014;-64
2023/09/07 12:41:58;;;;;;;2.95;2.50;;;29.40;90.60;;;;;;6120085;23;20012;-64
2023/09/07 12:44:24;;;;;;;4.90;2.28;;;29.40;90.40;;;;;;6067284;23;20042;-64
2023/09/07 12:46:50;;;;;;;5.45;1.98;;;29.50;90.80;;;;;;6119098;23;20315;-64